sensor_id;sensor_type;location;lat;lon;timestamp;P1;durP1;ratioP1;P2;durP2;ratioP2
69334;SDS011;56477;52.742;15.242;2022-08-19T00:02:12;11.87;;;9.20;;
69334;SDS011;56477;52.742;15.242;2022-08-19T00:04:38;12.73;;;9.52;;
69334;SDS011;56477;52.742;15.242;2022-08-19T00:07:05;12.18;;;9.55;;
69334;SDS011;56477;52.742;15.242;2022-08-19T00:09:31;13.88;;;9.90;;
69334;SDS011;56477;52.742;15.242;2022-08-19T00:11:58;13.88;;;10.07;;
69334;SDS011;56477;52.742;15.242;2022-08-19T00:14:24;14.77;;;9.97;;
69334;SDS011;56477;52.742;15.242;2022-08-19T00:16:52;12.40;;;9.45;;
69334;SDS011;56477;52.742;15.242;2022-08-19T00:19:19;13.52;;;10.55;;
69334;SDS011;56477;52.742;15.242;2022-08-19T00:21:46;16.05;;;10.32;;
69334;SDS011;56477;52.742;15.242;2022-08-19T00:24:13;13.33;;;10.43;;
69334;SDS011;56477;52.742;15.242;2022-08-19T00:26:41;14.77;;;10.20;;
69334;SDS011;56477;52.742;15.242;2022-08-19T00:29:08;14.82;;;10.98;;
69334;SDS011;56477;52.742;15.242;2022-08-19T00:31:37;15.85;;;10.77;;
69334;SDS011;56477;52.742;15.242;2022-08-19T00:34:03;13.48;;;10.20;;
69334;SDS011;56477;52.742;15.242;2022-08-19T00:36:29;14.70;;;10.40;;
69334;SDS011;56477;52.742;15.242;2022-08-19T00:38:55;15.68;;;10.88;;
69334;SDS011;56477;52.742;15.242;2022-08-19T00:41:21;14.48;;;10.05;;
69334;SDS011;56477;52.742;15.242;2022-08-19T00:46:27;15.70;;;10.83;;
69334;SDS011;56477;52.742;15.242;2022-08-19T00:48:53;15.15;;;11.48;;
69334;SDS011;56477;52.742;15.242;2022-08-19T00:51:19;14.63;;;11.45;;
69334;SDS011;56477;52.742;15.242;2022-08-19T00:53:47;15.55;;;10.77;;
69334;SDS011;56477;52.742;15.242;2022-08-19T00:56:12;15.40;;;11.20;;
69334;SDS011;56477;52.742;15.242;2022-08-19T00:58:38;15.63;;;11.45;;
69334;SDS011;56477;52.742;15.242;2022-08-19T01:01:06;15.68;;;11.35;;
69334;SDS011;56477;52.742;15.242;2022-08-19T01:03:33;16.40;;;12.02;;
69334;SDS011;56477;52.742;15.242;2022-08-19T01:05:58;16.93;;;12.17;;
69334;SDS011;56477;52.742;15.242;2022-08-19T01:08:25;19.13;;;12.00;;
69334;SDS011;56477;52.742;15.242;2022-08-19T01:10:55;14.60;;;11.35;;
69334;SDS011;56477;52.742;15.242;2022-08-19T01:13:24;17.10;;;12.57;;
69334;SDS011;56477;52.742;15.242;2022-08-19T01:15:57;16.85;;;12.43;;
69334;SDS011;56477;52.742;15.242;2022-08-19T01:18:30;17.30;;;13.05;;
69334;SDS011;56477;52.742;15.242;2022-08-19T01:21:00;18.10;;;11.73;;
69334;SDS011;56477;52.742;15.242;2022-08-19T01:23:31;16.90;;;12.27;;
69334;SDS011;56477;52.742;15.242;2022-08-19T01:26:13;19.55;;;13.00;;
69334;SDS011;56477;52.742;15.242;2022-08-19T01:28:41;16.58;;;12.77;;
69334;SDS011;56477;52.742;15.242;2022-08-19T01:31:10;16.98;;;12.10;;
69334;SDS011;56477;52.742;15.242;2022-08-19T01:33:41;16.48;;;12.85;;
69334;SDS011;56477;52.742;15.242;2022-08-19T01:36:09;18.60;;;12.97;;
69334;SDS011;56477;52.742;15.242;2022-08-19T01:38:39;16.95;;;13.20;;
69334;SDS011;56477;52.742;15.242;2022-08-19T01:41:08;18.55;;;12.68;;
69334;SDS011;56477;52.742;15.242;2022-08-19T01:43:36;16.90;;;12.18;;
69334;SDS011;56477;52.742;15.242;2022-08-19T01:46:03;17.73;;;13.10;;
69334;SDS011;56477;52.742;15.242;2022-08-19T01:48:37;17.17;;;12.33;;
69334;SDS011;56477;52.742;15.242;2022-08-19T01:51:04;18.50;;;12.77;;
69334;SDS011;56477;52.742;15.242;2022-08-19T01:53:31;16.33;;;12.85;;
69334;SDS011;56477;52.742;15.242;2022-08-19T01:55:58;18.02;;;13.10;;
69334;SDS011;56477;52.742;15.242;2022-08-19T01:58:26;18.15;;;13.95;;
69334;SDS011;56477;52.742;15.242;2022-08-19T02:00:56;16.58;;;13.38;;
69334;SDS011;56477;52.742;15.242;2022-08-19T02:03:23;20.00;;;13.93;;
69334;SDS011;56477;52.742;15.242;2022-08-19T02:05:53;17.38;;;13.45;;
69334;SDS011;56477;52.742;15.242;2022-08-19T02:08:21;18.60;;;13.65;;
69334;SDS011;56477;52.742;15.242;2022-08-19T02:10:48;19.52;;;12.82;;
69334;SDS011;56477;52.742;15.242;2022-08-19T02:13:15;17.23;;;13.55;;
69334;SDS011;56477;52.742;15.242;2022-08-19T02:15:41;18.13;;;13.30;;
69334;SDS011;56477;52.742;15.242;2022-08-19T02:18:07;19.60;;;13.32;;
69334;SDS011;56477;52.742;15.242;2022-08-19T02:20:33;16.85;;;13.23;;
69334;SDS011;56477;52.742;15.242;2022-08-19T02:23:00;17.23;;;13.27;;
69334;SDS011;56477;52.742;15.242;2022-08-19T02:25:26;19.05;;;13.73;;
69334;SDS011;56477;52.742;15.242;2022-08-19T02:27:52;18.53;;;12.70;;
69334;SDS011;56477;52.742;15.242;2022-08-19T02:30:19;17.40;;;12.70;;
69334;SDS011;56477;52.742;15.242;2022-08-19T02:32:45;16.92;;;13.82;;
69334;SDS011;56477;52.742;15.242;2022-08-19T02:35:14;17.85;;;13.05;;
69334;SDS011;56477;52.742;15.242;2022-08-19T02:37:41;17.88;;;13.38;;
69334;SDS011;56477;52.742;15.242;2022-08-19T02:40:26;18.27;;;14.65;;
69334;SDS011;56477;52.742;15.242;2022-08-19T02:42:53;17.07;;;14.00;;
69334;SDS011;56477;52.742;15.242;2022-08-19T02:45:19;20.85;;;14.20;;
69334;SDS011;56477;52.742;15.242;2022-08-19T02:47:45;22.27;;;14.10;;
69334;SDS011;56477;52.742;15.242;2022-08-19T02:50:11;20.08;;;14.13;;
69334;SDS011;56477;52.742;15.242;2022-08-19T02:52:38;19.50;;;14.82;;
69334;SDS011;56477;52.742;15.242;2022-08-19T02:55:04;19.90;;;14.07;;
69334;SDS011;56477;52.742;15.242;2022-08-19T02:57:31;19.05;;;13.30;;
69334;SDS011;56477;52.742;15.242;2022-08-19T02:59:57;19.55;;;14.55;;
69334;SDS011;56477;52.742;15.242;2022-08-19T03:02:23;17.90;;;14.07;;
69334;SDS011;56477;52.742;15.242;2022-08-19T03:04:49;19.00;;;14.02;;
69334;SDS011;56477;52.742;15.242;2022-08-19T03:07:16;19.83;;;14.03;;
69334;SDS011;56477;52.742;15.242;2022-08-19T03:09:43;17.90;;;14.50;;
69334;SDS011;56477;52.742;15.242;2022-08-19T03:12:09;19.00;;;15.13;;
69334;SDS011;56477;52.742;15.242;2022-08-19T03:14:36;19.42;;;14.50;;
69334;SDS011;56477;52.742;15.242;2022-08-19T03:17:03;18.60;;;14.40;;
69334;SDS011;56477;52.742;15.242;2022-08-19T03:19:30;18.27;;;13.90;;
69334;SDS011;56477;52.742;15.242;2022-08-19T03:21:57;22.50;;;13.98;;
69334;SDS011;56477;52.742;15.242;2022-08-19T03:24:23;20.23;;;15.07;;
69334;SDS011;56477;52.742;15.242;2022-08-19T03:26:51;20.33;;;14.75;;
69334;SDS011;56477;52.742;15.242;2022-08-19T03:29:24;19.13;;;15.35;;
69334;SDS011;56477;52.742;15.242;2022-08-19T03:31:52;20.13;;;15.37;;
69334;SDS011;56477;52.742;15.242;2022-08-19T03:34:23;22.40;;;15.33;;
69334;SDS011;56477;52.742;15.242;2022-08-19T03:36:52;21.00;;;14.63;;
69334;SDS011;56477;52.742;15.242;2022-08-19T03:39:20;19.95;;;13.98;;
69334;SDS011;56477;52.742;15.242;2022-08-19T03:41:46;21.35;;;14.70;;
69334;SDS011;56477;52.742;15.242;2022-08-19T03:44:16;22.92;;;15.07;;
69334;SDS011;56477;52.742;15.242;2022-08-19T03:46:47;22.23;;;14.43;;
69334;SDS011;56477;52.742;15.242;2022-08-19T03:49:18;20.27;;;15.75;;
69334;SDS011;56477;52.742;15.242;2022-08-19T03:51:45;19.60;;;15.13;;
69334;SDS011;56477;52.742;15.242;2022-08-19T03:54:13;19.25;;;14.55;;
69334;SDS011;56477;52.742;15.242;2022-08-19T03:56:42;19.23;;;14.07;;
69334;SDS011;56477;52.742;15.242;2022-08-19T03:59:10;19.07;;;13.97;;
69334;SDS011;56477;52.742;15.242;2022-08-19T04:01:39;21.13;;;14.77;;
69334;SDS011;56477;52.742;15.242;2022-08-19T04:04:05;19.83;;;15.40;;
69334;SDS011;56477;52.742;15.242;2022-08-19T04:06:32;20.75;;;15.40;;
69334;SDS011;56477;52.742;15.242;2022-08-19T04:09:01;19.23;;;14.77;;
69334;SDS011;56477;52.742;15.242;2022-08-19T04:11:29;21.53;;;14.97;;
69334;SDS011;56477;52.742;15.242;2022-08-19T04:13:59;18.20;;;14.68;;
69334;SDS011;56477;52.742;15.242;2022-08-19T04:16:28;18.38;;;15.45;;
69334;SDS011;56477;52.742;15.242;2022-08-19T04:18:55;19.65;;;14.48;;
69334;SDS011;56477;52.742;15.242;2022-08-19T04:21:25;19.58;;;14.63;;
69334;SDS011;56477;52.742;15.242;2022-08-19T04:23:53;20.40;;;14.07;;
69334;SDS011;56477;52.742;15.242;2022-08-19T04:26:21;19.25;;;14.02;;
69334;SDS011;56477;52.742;15.242;2022-08-19T04:29:00;21.40;;;14.65;;
69334;SDS011;56477;52.742;15.242;2022-08-19T04:31:29;17.90;;;14.40;;
69334;SDS011;56477;52.742;15.242;2022-08-19T04:33:57;19.25;;;14.05;;
69334;SDS011;56477;52.742;15.242;2022-08-19T04:36:26;21.57;;;14.20;;
69334;SDS011;56477;52.742;15.242;2022-08-19T04:38:55;23.63;;;13.85;;
69334;SDS011;56477;52.742;15.242;2022-08-19T04:41:22;20.33;;;14.68;;
69334;SDS011;56477;52.742;15.242;2022-08-19T04:44:07;18.92;;;14.32;;
69334;SDS011;56477;52.742;15.242;2022-08-19T04:46:34;19.45;;;13.98;;
69334;SDS011;56477;52.742;15.242;2022-08-19T04:49:00;20.90;;;14.27;;
69334;SDS011;56477;52.742;15.242;2022-08-19T04:51:30;20.67;;;14.77;;
69334;SDS011;56477;52.742;15.242;2022-08-19T04:53:57;20.52;;;14.40;;
69334;SDS011;56477;52.742;15.242;2022-08-19T04:56:25;19.45;;;14.82;;
69334;SDS011;56477;52.742;15.242;2022-08-19T04:58:53;20.88;;;14.93;;
69334;SDS011;56477;52.742;15.242;2022-08-19T05:01:21;19.27;;;14.40;;
69334;SDS011;56477;52.742;15.242;2022-08-19T05:03:54;21.52;;;14.60;;
69334;SDS011;56477;52.742;15.242;2022-08-19T05:06:22;18.48;;;14.30;;
69334;SDS011;56477;52.742;15.242;2022-08-19T05:08:48;20.67;;;15.25;;
69334;SDS011;56477;52.742;15.242;2022-08-19T05:13:45;18.00;;;14.87;;
69334;SDS011;56477;52.742;15.242;2022-08-19T05:16:12;19.77;;;14.45;;
69334;SDS011;56477;52.742;15.242;2022-08-19T05:18:39;19.77;;;15.43;;
69334;SDS011;56477;52.742;15.242;2022-08-19T05:21:24;21.40;;;14.32;;
69334;SDS011;56477;52.742;15.242;2022-08-19T05:24:10;27.58;;;15.90;;
69334;SDS011;56477;52.742;15.242;2022-08-19T05:26:40;18.97;;;15.03;;
69334;SDS011;56477;52.742;15.242;2022-08-19T05:29:08;20.30;;;15.27;;
69334;SDS011;56477;52.742;15.242;2022-08-19T05:31:35;18.50;;;14.77;;
69334;SDS011;56477;52.742;15.242;2022-08-19T05:34:03;21.05;;;15.52;;
69334;SDS011;56477;52.742;15.242;2022-08-19T05:36:36;20.70;;;15.63;;
69334;SDS011;56477;52.742;15.242;2022-08-19T05:39:10;23.23;;;15.83;;
69334;SDS011;56477;52.742;15.242;2022-08-19T05:41:42;21.60;;;15.63;;
69334;SDS011;56477;52.742;15.242;2022-08-19T05:44:13;22.98;;;15.77;;
69334;SDS011;56477;52.742;15.242;2022-08-19T05:46:40;21.65;;;15.48;;
69334;SDS011;56477;52.742;15.242;2022-08-19T05:49:09;25.00;;;15.70;;
69334;SDS011;56477;52.742;15.242;2022-08-19T05:51:36;20.73;;;16.38;;
69334;SDS011;56477;52.742;15.242;2022-08-19T05:54:04;21.63;;;16.40;;
69334;SDS011;56477;52.742;15.242;2022-08-19T05:56:32;21.13;;;16.17;;
69334;SDS011;56477;52.742;15.242;2022-08-19T05:59:02;20.00;;;16.00;;
69334;SDS011;56477;52.742;15.242;2022-08-19T06:01:29;21.90;;;15.95;;
69334;SDS011;56477;52.742;15.242;2022-08-19T06:03:55;22.07;;;16.47;;
69334;SDS011;56477;52.742;15.242;2022-08-19T06:06:21;22.50;;;16.03;;
69334;SDS011;56477;52.742;15.242;2022-08-19T06:08:47;20.10;;;15.05;;
69334;SDS011;56477;52.742;15.242;2022-08-19T06:11:19;22.08;;;15.05;;
69334;SDS011;56477;52.742;15.242;2022-08-19T06:13:52;21.67;;;16.10;;
69334;SDS011;56477;52.742;15.242;2022-08-19T06:16:20;20.60;;;14.77;;
69334;SDS011;56477;52.742;15.242;2022-08-19T06:18:54;21.97;;;15.23;;
69334;SDS011;56477;52.742;15.242;2022-08-19T06:21:23;20.67;;;15.25;;
69334;SDS011;56477;52.742;15.242;2022-08-19T06:23:52;23.02;;;16.02;;
69334;SDS011;56477;52.742;15.242;2022-08-19T06:26:19;22.30;;;16.60;;
69334;SDS011;56477;52.742;15.242;2022-08-19T06:28:46;22.75;;;16.83;;
69334;SDS011;56477;52.742;15.242;2022-08-19T06:31:17;20.60;;;16.27;;
69334;SDS011;56477;52.742;15.242;2022-08-19T06:33:46;21.80;;;14.80;;
69334;SDS011;56477;52.742;15.242;2022-08-19T06:36:20;20.60;;;15.70;;
69334;SDS011;56477;52.742;15.242;2022-08-19T06:38:48;23.52;;;16.40;;
69334;SDS011;56477;52.742;15.242;2022-08-19T06:41:14;20.23;;;16.00;;
69334;SDS011;56477;52.742;15.242;2022-08-19T06:43:40;20.80;;;16.70;;
69334;SDS011;56477;52.742;15.242;2022-08-19T06:46:11;22.10;;;16.27;;
69334;SDS011;56477;52.742;15.242;2022-08-19T06:48:39;20.52;;;16.25;;
69334;SDS011;56477;52.742;15.242;2022-08-19T06:51:05;22.40;;;16.05;;
69334;SDS011;56477;52.742;15.242;2022-08-19T06:53:32;19.45;;;15.93;;
69334;SDS011;56477;52.742;15.242;2022-08-19T06:55:58;21.70;;;15.77;;
69334;SDS011;56477;52.742;15.242;2022-08-19T06:58:28;21.77;;;15.50;;
69334;SDS011;56477;52.742;15.242;2022-08-19T07:00:58;19.00;;;14.73;;
69334;SDS011;56477;52.742;15.242;2022-08-19T07:03:28;20.70;;;15.52;;
69334;SDS011;56477;52.742;15.242;2022-08-19T07:05:56;20.15;;;15.98;;
69334;SDS011;56477;52.742;15.242;2022-08-19T07:08:22;21.75;;;15.68;;
69334;SDS011;56477;52.742;15.242;2022-08-19T07:10:52;20.33;;;15.98;;
69334;SDS011;56477;52.742;15.242;2022-08-19T07:13:18;21.15;;;16.45;;
69334;SDS011;56477;52.742;15.242;2022-08-19T07:15:44;18.43;;;15.77;;
69334;SDS011;56477;52.742;15.242;2022-08-19T07:18:12;18.88;;;15.82;;
69334;SDS011;56477;52.742;15.242;2022-08-19T07:20:39;20.27;;;15.50;;
69334;SDS011;56477;52.742;15.242;2022-08-19T07:23:05;18.75;;;14.73;;
69334;SDS011;56477;52.742;15.242;2022-08-19T07:25:31;20.15;;;15.38;;
69334;SDS011;56477;52.742;15.242;2022-08-19T07:27:57;23.87;;;15.97;;
69334;SDS011;56477;52.742;15.242;2022-08-19T07:30:23;22.88;;;16.95;;
69334;SDS011;56477;52.742;15.242;2022-08-19T07:32:49;18.85;;;15.82;;
69334;SDS011;56477;52.742;15.242;2022-08-19T07:35:17;19.83;;;16.15;;
69334;SDS011;56477;52.742;15.242;2022-08-19T07:37:45;19.13;;;15.00;;
69334;SDS011;56477;52.742;15.242;2022-08-19T07:40:11;19.90;;;16.17;;
69334;SDS011;56477;52.742;15.242;2022-08-19T07:42:37;22.38;;;15.82;;
69334;SDS011;56477;52.742;15.242;2022-08-19T07:45:03;19.38;;;16.00;;
69334;SDS011;56477;52.742;15.242;2022-08-19T07:47:31;19.30;;;15.93;;
69334;SDS011;56477;52.742;15.242;2022-08-19T07:49:57;20.13;;;15.97;;
69334;SDS011;56477;52.742;15.242;2022-08-19T07:52:22;21.83;;;15.48;;
69334;SDS011;56477;52.742;15.242;2022-08-19T07:54:48;20.73;;;15.68;;
69334;SDS011;56477;52.742;15.242;2022-08-19T07:57:15;18.77;;;15.68;;
69334;SDS011;56477;52.742;15.242;2022-08-19T07:59:41;18.20;;;15.57;;
69334;SDS011;56477;52.742;15.242;2022-08-19T08:02:07;18.17;;;14.88;;
69334;SDS011;56477;52.742;15.242;2022-08-19T08:04:34;19.02;;;14.95;;
69334;SDS011;56477;52.742;15.242;2022-08-19T08:07:19;17.52;;;14.52;;
69334;SDS011;56477;52.742;15.242;2022-08-19T08:10:05;18.80;;;14.65;;
69334;SDS011;56477;52.742;15.242;2022-08-19T08:12:34;15.98;;;14.20;;
69334;SDS011;56477;52.742;15.242;2022-08-19T08:15:09;17.95;;;14.25;;
69334;SDS011;56477;52.742;15.242;2022-08-19T08:17:37;17.30;;;14.60;;
69334;SDS011;56477;52.742;15.242;2022-08-19T08:20:05;18.83;;;14.03;;
69334;SDS011;56477;52.742;15.242;2022-08-19T08:22:32;15.53;;;13.63;;
69334;SDS011;56477;52.742;15.242;2022-08-19T08:25:22;16.55;;;13.80;;
69334;SDS011;56477;52.742;15.242;2022-08-19T08:27:49;16.08;;;13.35;;
69334;SDS011;56477;52.742;15.242;2022-08-19T08:30:17;17.45;;;13.32;;
69334;SDS011;56477;52.742;15.242;2022-08-19T08:32:45;18.98;;;14.13;;
69334;SDS011;56477;52.742;15.242;2022-08-19T08:35:13;18.77;;;15.05;;
69334;SDS011;56477;52.742;15.242;2022-08-19T08:37:41;16.00;;;14.05;;
69334;SDS011;56477;52.742;15.242;2022-08-19T08:40:12;16.27;;;13.87;;
69334;SDS011;56477;52.742;15.242;2022-08-19T08:42:57;16.47;;;14.77;;
69334;SDS011;56477;52.742;15.242;2022-08-19T08:45:30;16.30;;;13.65;;
69334;SDS011;56477;52.742;15.242;2022-08-19T08:48:01;19.63;;;13.85;;
69334;SDS011;56477;52.742;15.242;2022-08-19T08:50:43;16.70;;;14.80;;
69334;SDS011;56477;52.742;15.242;2022-08-19T08:53:14;16.17;;;14.48;;
69334;SDS011;56477;52.742;15.242;2022-08-19T08:55:42;16.10;;;14.45;;
69334;SDS011;56477;52.742;15.242;2022-08-19T08:58:19;16.15;;;14.45;;
69334;SDS011;56477;52.742;15.242;2022-08-19T09:00:51;15.55;;;14.02;;
69334;SDS011;56477;52.742;15.242;2022-08-19T09:03:19;17.27;;;15.50;;
69334;SDS011;56477;52.742;15.242;2022-08-19T09:05:55;17.47;;;14.20;;
69334;SDS011;56477;52.742;15.242;2022-08-19T09:10:54;18.05;;;14.65;;
69334;SDS011;56477;52.742;15.242;2022-08-19T09:16:07;19.35;;;17.40;;
69334;SDS011;56477;52.742;15.242;2022-08-19T09:18:39;17.27;;;15.07;;
69334;SDS011;56477;52.742;15.242;2022-08-19T09:21:13;17.05;;;15.27;;
69334;SDS011;56477;52.742;15.242;2022-08-19T09:23:40;15.93;;;14.32;;
69334;SDS011;56477;52.742;15.242;2022-08-19T09:26:07;17.90;;;15.07;;
69334;SDS011;56477;52.742;15.242;2022-08-19T09:28:34;19.90;;;15.43;;
69334;SDS011;56477;52.742;15.242;2022-08-19T09:31:02;18.77;;;16.77;;
69334;SDS011;56477;52.742;15.242;2022-08-19T09:33:28;20.80;;;16.55;;
69334;SDS011;56477;52.742;15.242;2022-08-19T09:36:05;19.33;;;15.95;;
69334;SDS011;56477;52.742;15.242;2022-08-19T09:38:33;18.10;;;16.20;;
69334;SDS011;56477;52.742;15.242;2022-08-19T09:41:02;17.77;;;15.88;;
69334;SDS011;56477;52.742;15.242;2022-08-19T09:43:32;16.80;;;14.97;;
69334;SDS011;56477;52.742;15.242;2022-08-19T09:46:00;19.93;;;15.23;;
69334;SDS011;56477;52.742;15.242;2022-08-19T09:48:26;18.23;;;16.42;;
69334;SDS011;56477;52.742;15.242;2022-08-19T09:50:52;16.98;;;15.18;;
69334;SDS011;56477;52.742;15.242;2022-08-19T09:53:20;18.90;;;16.63;;
69334;SDS011;56477;52.742;15.242;2022-08-19T09:55:47;19.40;;;17.50;;
69334;SDS011;56477;52.742;15.242;2022-08-19T09:58:13;20.65;;;17.08;;
69334;SDS011;56477;52.742;15.242;2022-08-19T10:00:39;19.30;;;17.30;;
69334;SDS011;56477;52.742;15.242;2022-08-19T10:03:05;19.20;;;16.60;;
69334;SDS011;56477;52.742;15.242;2022-08-19T10:05:31;18.77;;;16.75;;
69334;SDS011;56477;52.742;15.242;2022-08-19T10:08:16;19.38;;;16.60;;
69334;SDS011;56477;52.742;15.242;2022-08-19T10:10:43;20.08;;;16.73;;
69334;SDS011;56477;52.742;15.242;2022-08-19T10:13:10;19.73;;;17.38;;
69334;SDS011;56477;52.742;15.242;2022-08-19T10:15:36;17.93;;;16.03;;
69334;SDS011;56477;52.742;15.242;2022-08-19T10:18:04;18.33;;;15.77;;
69334;SDS011;56477;52.742;15.242;2022-08-19T10:20:30;18.70;;;16.02;;
69334;SDS011;56477;52.742;15.242;2022-08-19T10:22:57;20.55;;;16.98;;
69334;SDS011;56477;52.742;15.242;2022-08-19T10:25:24;18.67;;;16.60;;
69334;SDS011;56477;52.742;15.242;2022-08-19T10:27:52;18.27;;;16.25;;
69334;SDS011;56477;52.742;15.242;2022-08-19T10:30:19;19.58;;;15.43;;
69334;SDS011;56477;52.742;15.242;2022-08-19T10:32:45;19.17;;;16.13;;
69334;SDS011;56477;52.742;15.242;2022-08-19T10:35:11;18.73;;;15.98;;
69334;SDS011;56477;52.742;15.242;2022-08-19T10:37:39;17.20;;;15.27;;
69334;SDS011;56477;52.742;15.242;2022-08-19T10:40:06;19.10;;;15.63;;
69334;SDS011;56477;52.742;15.242;2022-08-19T10:42:34;16.83;;;14.50;;
69334;SDS011;56477;52.742;15.242;2022-08-19T10:45:01;17.88;;;15.23;;
69334;SDS011;56477;52.742;15.242;2022-08-19T10:47:27;19.40;;;15.45;;
69334;SDS011;56477;52.742;15.242;2022-08-19T10:49:53;16.90;;;15.07;;
69334;SDS011;56477;52.742;15.242;2022-08-19T10:52:42;20.05;;;14.57;;
69334;SDS011;56477;52.742;15.242;2022-08-19T10:55:11;16.57;;;14.27;;
69334;SDS011;56477;52.742;15.242;2022-08-19T10:57:56;15.77;;;13.90;;
69334;SDS011;56477;52.742;15.242;2022-08-19T11:00:23;16.88;;;14.38;;
69334;SDS011;56477;52.742;15.242;2022-08-19T11:02:50;16.98;;;14.40;;
69334;SDS011;56477;52.742;15.242;2022-08-19T11:05:17;17.35;;;13.88;;
69334;SDS011;56477;52.742;15.242;2022-08-19T11:07:45;18.92;;;14.32;;
69334;SDS011;56477;52.742;15.242;2022-08-19T11:10:12;16.67;;;14.30;;
69334;SDS011;56477;52.742;15.242;2022-08-19T11:12:40;16.17;;;14.18;;
69334;SDS011;56477;52.742;15.242;2022-08-19T11:15:07;18.67;;;14.57;;
69334;SDS011;56477;52.742;15.242;2022-08-19T11:17:37;20.08;;;13.77;;
69334;SDS011;56477;52.742;15.242;2022-08-19T11:20:07;17.13;;;14.13;;
69334;SDS011;56477;52.742;15.242;2022-08-19T11:22:33;19.73;;;15.00;;
69334;SDS011;56477;52.742;15.242;2022-08-19T11:25:00;17.08;;;13.63;;
69334;SDS011;56477;52.742;15.242;2022-08-19T11:27:26;15.60;;;13.90;;
69334;SDS011;56477;52.742;15.242;2022-08-19T11:29:52;18.60;;;14.60;;
69334;SDS011;56477;52.742;15.242;2022-08-19T11:32:18;19.52;;;14.52;;
69334;SDS011;56477;52.742;15.242;2022-08-19T11:34:44;23.05;;;15.30;;
69334;SDS011;56477;52.742;15.242;2022-08-19T11:37:10;17.10;;;14.03;;
69334;SDS011;56477;52.742;15.242;2022-08-19T11:39:36;16.58;;;14.07;;
69334;SDS011;56477;52.742;15.242;2022-08-19T11:42:03;19.33;;;13.63;;
69334;SDS011;56477;52.742;15.242;2022-08-19T11:44:50;18.77;;;14.43;;
69334;SDS011;56477;52.742;15.242;2022-08-19T11:47:16;21.10;;;16.75;;
69334;SDS011;56477;52.742;15.242;2022-08-19T11:49:42;21.95;;;15.57;;
69334;SDS011;56477;52.742;15.242;2022-08-19T11:52:08;18.57;;;14.83;;
69334;SDS011;56477;52.742;15.242;2022-08-19T11:54:34;20.02;;;16.45;;
69334;SDS011;56477;52.742;15.242;2022-08-19T11:57:02;19.73;;;16.25;;
69334;SDS011;56477;52.742;15.242;2022-08-19T11:59:28;18.90;;;16.90;;
69334;SDS011;56477;52.742;15.242;2022-08-19T12:01:55;18.65;;;16.63;;
69334;SDS011;56477;52.742;15.242;2022-08-19T12:04:21;22.03;;;15.63;;
69334;SDS011;56477;52.742;15.242;2022-08-19T12:06:47;21.07;;;17.43;;
69334;SDS011;56477;52.742;15.242;2022-08-19T12:09:15;18.58;;;13.90;;
69334;SDS011;56477;52.742;15.242;2022-08-19T12:11:42;17.13;;;12.77;;
69334;SDS011;56477;52.742;15.242;2022-08-19T12:14:10;19.55;;;17.13;;
69334;SDS011;56477;52.742;15.242;2022-08-19T12:16:37;21.20;;;17.67;;
69334;SDS011;56477;52.742;15.242;2022-08-19T12:19:03;23.67;;;16.67;;
69334;SDS011;56477;52.742;15.242;2022-08-19T12:21:31;21.17;;;17.15;;
69334;SDS011;56477;52.742;15.242;2022-08-19T12:23:59;22.52;;;18.13;;
69334;SDS011;56477;52.742;15.242;2022-08-19T12:26:27;22.13;;;16.75;;
69334;SDS011;56477;52.742;15.242;2022-08-19T12:28:54;24.20;;;17.95;;
69334;SDS011;56477;52.742;15.242;2022-08-19T12:31:20;22.05;;;18.10;;
69334;SDS011;56477;52.742;15.242;2022-08-19T12:33:46;22.60;;;16.93;;
69334;SDS011;56477;52.742;15.242;2022-08-19T12:36:12;23.53;;;18.17;;
69334;SDS011;56477;52.742;15.242;2022-08-19T12:38:40;28.90;;;21.05;;
69334;SDS011;56477;52.742;15.242;2022-08-19T12:41:08;26.42;;;20.30;;
69334;SDS011;56477;52.742;15.242;2022-08-19T12:43:37;28.10;;;20.38;;
69334;SDS011;56477;52.742;15.242;2022-08-19T12:46:03;25.83;;;17.27;;
69334;SDS011;56477;52.742;15.242;2022-08-19T12:48:31;27.07;;;19.20;;
69334;SDS011;56477;52.742;15.242;2022-08-19T12:50:57;21.40;;;15.43;;
69334;SDS011;56477;52.742;15.242;2022-08-19T12:53:23;29.75;;;21.88;;
69334;SDS011;56477;52.742;15.242;2022-08-19T12:55:54;21.70;;;14.43;;
69334;SDS011;56477;52.742;15.242;2022-08-19T12:58:22;29.85;;;19.98;;
69334;SDS011;56477;52.742;15.242;2022-08-19T13:00:49;23.90;;;16.80;;
69334;SDS011;56477;52.742;15.242;2022-08-19T13:03:14;27.53;;;20.83;;
69334;SDS011;56477;52.742;15.242;2022-08-19T13:05:40;21.55;;;16.70;;
69334;SDS011;56477;52.742;15.242;2022-08-19T13:08:06;27.67;;;18.17;;
69334;SDS011;56477;52.742;15.242;2022-08-19T13:10:33;27.73;;;20.27;;
69334;SDS011;56477;52.742;15.242;2022-08-19T13:13:02;31.10;;;20.92;;
69334;SDS011;56477;52.742;15.242;2022-08-19T13:15:33;23.33;;;16.48;;
69334;SDS011;56477;52.742;15.242;2022-08-19T13:18:00;30.05;;;20.63;;
69334;SDS011;56477;52.742;15.242;2022-08-19T13:20:26;27.23;;;20.77;;
69334;SDS011;56477;52.742;15.242;2022-08-19T13:22:53;29.43;;;21.50;;
69334;SDS011;56477;52.742;15.242;2022-08-19T13:25:20;28.83;;;21.40;;
69334;SDS011;56477;52.742;15.242;2022-08-19T13:27:47;24.35;;;19.23;;
69334;SDS011;56477;52.742;15.242;2022-08-19T13:30:14;22.80;;;14.93;;
69334;SDS011;56477;52.742;15.242;2022-08-19T13:32:59;29.85;;;21.60;;
69334;SDS011;56477;52.742;15.242;2022-08-19T13:35:38;28.42;;;21.33;;
69334;SDS011;56477;52.742;15.242;2022-08-19T13:38:24;24.88;;;19.83;;
69334;SDS011;56477;52.742;15.242;2022-08-19T13:40:51;26.60;;;20.30;;
69334;SDS011;56477;52.742;15.242;2022-08-19T13:43:20;26.65;;;21.85;;
69334;SDS011;56477;52.742;15.242;2022-08-19T13:45:50;26.73;;;18.95;;
69334;SDS011;56477;52.742;15.242;2022-08-19T13:48:19;27.55;;;21.52;;
69334;SDS011;56477;52.742;15.242;2022-08-19T13:50:45;23.98;;;19.35;;
69334;SDS011;56477;52.742;15.242;2022-08-19T13:53:12;25.17;;;20.37;;
69334;SDS011;56477;52.742;15.242;2022-08-19T13:55:39;22.87;;;18.37;;
69334;SDS011;56477;52.742;15.242;2022-08-19T13:58:06;22.55;;;18.60;;
69334;SDS011;56477;52.742;15.242;2022-08-19T14:00:35;25.05;;;20.05;;
69334;SDS011;56477;52.742;15.242;2022-08-19T14:03:04;24.75;;;21.33;;
69334;SDS011;56477;52.742;15.242;2022-08-19T14:05:31;25.05;;;20.25;;
69334;SDS011;56477;52.742;15.242;2022-08-19T14:07:58;24.92;;;19.63;;
69334;SDS011;56477;52.742;15.242;2022-08-19T14:10:25;26.05;;;21.75;;
69334;SDS011;56477;52.742;15.242;2022-08-19T14:12:53;22.60;;;17.63;;
69334;SDS011;56477;52.742;15.242;2022-08-19T14:15:20;30.77;;;24.23;;
69334;SDS011;56477;52.742;15.242;2022-08-19T14:17:49;26.80;;;20.83;;
69334;SDS011;56477;52.742;15.242;2022-08-19T14:20:15;27.65;;;22.77;;
69334;SDS011;56477;52.742;15.242;2022-08-19T14:22:41;27.85;;;20.95;;
69334;SDS011;56477;52.742;15.242;2022-08-19T14:25:09;27.58;;;22.25;;
69334;SDS011;56477;52.742;15.242;2022-08-19T14:27:38;24.92;;;19.45;;